Aviation Digital Data Service (ADDS)

Output produced by METARs form (0629 UTC 07 April 2020)
found at http://www.aviationweather.gov/metar/data/
 
KDRO 070553Z AUTO 01003KT 10SM CLR 03/M09 A3010 RMK AO2 SLP163 T00331089 10167 20006 51022
KDRO 070520Z 0706/0806 VRB04KT P6SM FEW200 
     FM071800 23010G18KT P6SM SKC 
     FM080100 VRB04KT P6SM SKC
       
KFMN 070553Z AUTO 26011KT 10SM CLR 12/M12 A3005 RMK AO2 SLP138 T01171117 10211 20111 51023
KFMN 070527Z 0706/0806 28007KT P6SM FEW250 
     FM070900 08004KT P6SM SKC 
     FM071900 26010KT P6SM SKC 
     FM080100 29005KT P6SM SKC